Asahi, Japan

4:38 PM JST on April 30, 2017 (GMT +0900)
Asahikawa | | Change Station

Elev 692 ft 43.67 °N, 142.45 °E | Updated 38 minutes ago

Rain
Rain
59 °F
Feels Like 59 °F
N
18
Wind Variable Wind from SSW

Today
High -- | Low -- °F
--% Chance of Precip.
Yesterday
High -- | Low -- °F
Precip. -- in
Pressure 29.47 in
Visibility 6.2 miles
Clouds Few 4000 ft
Mostly Cloudy 6000 ft
Mostly Cloudy 8000 ft
Dew Point 34 °F
Humidity 39%
Rainfall 0.00 in
Snow Depth Not available.
4:23 AM 6:31 PM
Waxing Crescent, 20% visible
METAR RJEC 300700Z 20016KT 9999 -SHRA FEW040 BKN060 BKN080 15/01 Q0998
Pressure 29.47 in
Visibility 6.2 miles
Clouds Few 4000 ft
Mostly Cloudy 6000 ft
Mostly Cloudy 8000 ft
Dew Point 34 °F
Humidity 39%
Rainfall 0.00 in
Snow Depth Not available.
4:23 AM 6:31 PM
Waxing Crescent, 20% visible
METAR RJEC 300700Z 20016KT 9999 -SHRA FEW040 BKN060 BKN080 15/01 Q0998

Get Severe Weather Alerts

Thanks for signing up!

Be on the lookout for a verification email in your inbox.

You'll start receiving the daily forecast at 8 AM.

×

10-Day Weather Forecast

No radar image for this location.
×

Almanac

Astronomy

Apr. 30, 2017 Rise Set
Actual Time
Civil Twilight
Nautical Twilight
Astronomical Twilight
Moon
Length of Visible Light
Length of Day
Tomorrow will be .
, % of the Moon is Illuminated

Today's Extremes

Country Highs Country Lows

Community

WunderPhotos

WunderBlog® & News

Nearby

Air Quality

  Air Quality AQ Index Pollutant
Not available.

Snow Depth

Station Depth Elevation

Earthquake Activity

City Distance Mag. Time & Date
Minimum magnitude displayed is 2.5.

Coastal Water Temperatures

Place Temperature

Stations

Nearby Weather Stations

Station Location Temp. Windchill Dew Point Humidity Wind Precip. Elev Updated Type